Time;durP1;ratioP1;P1;durP2;ratioP2;P2;SDS_P1;SDS_P2;PMS_P1;PMS_P2;Temp;Humidity;BMP_temperature;BMP_pressure;BME280_temperature;BME280_humidity;BME280_pressure;Samples;Min_cycle;Max_cycle;Signal;HPM_P1;HPM_P2
2023/09/03 00:00:12;;;;;;;12.70;8.00;;;14.30;99.90;;;;;;4394072;28;657428;-67
2023/09/03 00:03:00;;;;;;;11.80;8.23;;;14.20;99.90;;;;;;4381087;28;657027;-67
2023/09/03 00:05:50;;;;;;;14.03;8.87;;;14.20;99.90;;;;;;4402010;28;657438;-67
2023/09/03 00:08:39;;;;;;;15.93;8.07;;;14.20;99.90;;;;;;4382525;28;656928;-67
2023/09/03 00:11:26;;;;;;;12.03;7.80;;;14.10;99.90;;;;;;4412413;28;656973;-67
2023/09/03 00:14:13;;;;;;;12.87;7.73;;;14.00;99.90;;;;;;4391597;28;656571;-67
2023/09/03 00:17:00;;;;;;;11.63;7.43;;;13.90;99.90;;;;;;4402509;28;657459;-67
2023/09/03 00:19:47;;;;;;;19.73;8.53;;;13.90;99.90;;;;;;4391417;28;656621;-67
2023/09/03 00:22:35;;;;;;;19.70;10.27;;;13.90;99.90;;;;;;4417710;28;657393;-67
2023/09/03 00:25:24;;;;;;;18.63;9.97;;;13.80;99.90;;;;;;4408450;28;657594;-67
2023/09/03 00:28:11;;;;;;;18.47;11.03;;;13.80;99.90;;;;;;4412600;28;656829;-67
2023/09/03 00:31:02;;;;;;;23.43;12.10;;;13.80;99.90;;;;;;4384752;28;657675;-67
2023/09/03 00:33:50;;;;;;;22.67;12.27;;;13.70;99.90;;;;;;4388433;28;658751;-67
2023/09/03 00:36:37;;;;;;;24.93;13.30;;;13.70;99.90;;;;;;4412581;28;656998;-67
2023/09/03 00:39:24;;;;;;;24.13;14.90;;;13.60;99.90;;;;;;4376961;28;658337;-67
2023/09/03 00:42:13;;;;;;;29.23;17.43;;;13.50;99.90;;;;;;4409494;28;657998;-67
2023/09/03 00:45:00;;;;;;;34.93;19.00;;;13.50;99.90;;;;;;4392751;28;658585;-67
2023/09/03 00:47:48;;;;;;;41.27;22.50;;;13.50;99.90;;;;;;4389856;28;657546;-67
2023/09/03 00:50:35;;;;;;;41.27;20.30;;;13.50;99.90;;;;;;4414083;28;658520;-67
2023/09/03 00:53:23;;;;;;;38.97;19.60;;;13.50;99.90;;;;;;4408721;28;658176;-67
2023/09/03 00:56:10;;;;;;;33.13;20.33;;;13.40;99.90;;;;;;4411167;28;657807;-67
2023/09/03 00:59:00;;;;;;;32.78;19.63;;;13.40;99.90;;;;;;4396871;28;658101;-67
2023/09/03 01:01:48;;;;;;;30.73;17.47;;;13.30;99.90;;;;;;4407310;28;658350;-67
2023/09/03 01:04:36;;;;;;;32.57;19.40;;;13.30;99.90;;;;;;4395538;28;658352;-67
2023/09/03 01:07:23;;;;;;;30.47;16.23;;;13.20;99.90;;;;;;4391675;28;657898;-67
2023/09/03 01:10:10;;;;;;;25.93;15.53;;;13.10;99.90;;;;;;4414107;28;658257;-67
2023/09/03 01:13:00;;;;;;;32.03;17.63;;;13.00;99.90;;;;;;4392532;28;657927;-68
2023/09/03 01:15:50;;;;;;;35.93;17.23;;;13.10;99.90;;;;;;4400648;28;657672;-67
2023/09/03 01:18:38;;;;;;;28.93;17.17;;;13.10;99.90;;;;;;4408550;28;657437;-67
2023/09/03 01:21:45;;;;;;;24.23;15.40;;;13.10;99.90;;;;;;4409506;28;659072;-67
2023/09/03 01:24:47;;;;;;;28.53;16.33;;;13.10;99.90;;;;;;4375610;28;657856;-67
2023/09/03 01:27:37;;;;;;;23.37;14.90;;;13.10;99.90;;;;;;4358682;28;658444;-67
2023/09/03 01:30:25;;;;;;;29.50;15.53;;;13.10;99.90;;;;;;4389172;28;658670;-68
2023/09/03 01:33:13;;;;;;;28.87;16.10;;;13.10;99.90;;;;;;4400201;28;657846;-67
2023/09/03 01:36:00;;;;;;;28.83;15.97;;;13.00;99.90;;;;;;4411167;28;658943;-67
2023/09/03 01:38:47;;;;;;;29.60;17.00;;;13.10;99.90;;;;;;4404290;28;657703;-67
2023/09/03 01:41:36;;;;;;;25.70;15.93;;;13.10;99.90;;;;;;4401699;28;658461;-68
2023/09/03 01:44:23;;;;;;;30.40;17.10;;;13.00;99.90;;;;;;4385281;28;657706;-67
2023/09/03 01:47:15;;;;;;;29.17;15.93;;;13.00;99.90;;;;;;4413236;28;658779;-67
2023/09/03 01:50:07;;;;;;;27.53;15.40;;;13.00;99.90;;;;;;4394970;28;657365;-68
2023/09/03 01:52:57;;;;;;;29.83;15.57;;;13.10;99.90;;;;;;4389595;28;658478;-67
2023/09/03 01:55:44;;;;;;;27.13;15.03;;;13.10;99.90;;;;;;4383920;28;658139;-68
2023/09/03 01:58:32;;;;;;;22.93;14.30;;;13.10;99.90;;;;;;4413648;28;658258;-68
2023/09/03 02:01:19;;;;;;;31.50;14.10;;;13.10;99.90;;;;;;4398119;28;658110;-68
2023/09/03 02:04:08;;;;;;;26.23;14.20;;;13.10;99.90;;;;;;4397460;28;657734;-68
2023/09/03 02:06:55;;;;;;;29.00;14.53;;;13.10;99.90;;;;;;4387596;28;659050;-68
2023/09/03 02:09:43;;;;;;;25.67;14.03;;;13.10;99.90;;;;;;4408037;28;657516;-68
2023/09/03 02:12:30;;;;;;;24.67;13.40;;;13.10;99.90;;;;;;4404032;28;658877;-68
2023/09/03 02:15:17;;;;;;;21.97;13.47;;;13.00;99.90;;;;;;4404939;28;657941;-68
2023/09/03 02:18:06;;;;;;;27.50;13.17;;;13.00;99.90;;;;;;4417825;28;658402;-68
2023/09/03 02:20:54;;;;;;;27.07;13.20;;;13.00;99.90;;;;;;4402851;28;657896;-68
2023/09/03 02:23:43;;;;;;;22.13;12.93;;;13.00;99.90;;;;;;4410890;28;658166;-68
2023/09/03 02:26:30;;;;;;;29.07;13.00;;;13.00;99.90;;;;;;4388532;28;659053;-68
2023/09/03 02:29:18;;;;;;;22.37;11.73;;;13.00;99.90;;;;;;4388586;28;657799;-68
2023/09/03 02:32:06;;;;;;;21.07;11.50;;;13.00;99.90;;;;;;4413581;28;659268;-68
2023/09/03 02:34:53;;;;;;;21.47;10.87;;;13.00;99.90;;;;;;4382421;28;657551;-68
2023/09/03 02:37:42;;;;;;;15.87;10.10;;;13.00;99.90;;;;;;4417992;28;658568;-68
2023/09/03 02:40:29;;;;;;;19.43;10.37;;;12.90;99.90;;;;;;4380054;28;657496;-68
2023/09/03 02:43:16;;;;;;;19.57;9.50;;;12.90;99.90;;;;;;4407991;28;657844;-68
2023/09/03 02:46:03;;;;;;;21.10;10.47;;;12.90;99.90;;;;;;4390233;28;656069;-68
2023/09/03 02:48:50;;;;;;;15.40;8.53;;;12.80;99.90;;;;;;4410642;28;658778;-68
2023/09/03 02:51:38;;;;;;;16.80;8.47;;;12.80;99.90;;;;;;4385111;28;656809;-68
2023/09/03 02:54:27;;;;;;;16.03;7.83;;;12.80;99.90;;;;;;4413069;28;657005;-68
2023/09/03 02:57:14;;;;;;;10.53;7.13;;;12.90;99.90;;;;;;4390828;28;656698;-68
2023/09/03 03:00:01;;;;;;;11.70;6.80;;;12.80;99.90;;;;;;4412505;28;656788;-68
2023/09/03 03:02:48;;;;;;;9.63;6.27;;;12.90;99.90;;;;;;4391011;28;656508;-68
2023/09/03 03:05:35;;;;;;;10.73;6.45;;;13.00;99.90;;;;;;4414932;28;656955;-68
2023/09/03 03:08:23;;;;;;;14.60;6.67;;;13.00;99.90;;;;;;4379925;28;656429;-68
2023/09/03 03:11:12;;;;;;;9.33;6.23;;;13.00;99.90;;;;;;4408321;28;658350;-68
2023/09/03 03:13:59;;;;;;;10.80;6.93;;;13.10;99.90;;;;;;4399996;28;656812;-68
2023/09/03 03:16:47;;;;;;;13.13;7.10;;;13.10;99.90;;;;;;4418261;28;657733;-68
2023/09/03 03:19:34;;;;;;;15.97;7.40;;;13.10;99.90;;;;;;4404878;28;656890;-68
2023/09/03 03:22:21;;;;;;;11.73;6.67;;;13.10;99.90;;;;;;4413298;28;656587;-68
2023/09/03 03:25:09;;;;;;;18.27;7.10;;;13.20;99.90;;;;;;4394999;28;657402;-68
2023/09/03 03:27:57;;;;;;;10.07;6.70;;;13.10;99.90;;;;;;4411963;28;656388;-68
2023/09/03 03:30:44;;;;;;;10.37;6.33;;;13.10;99.90;;;;;;4396468;28;656589;-68
2023/09/03 03:33:32;;;;;;;14.77;6.23;;;13.10;99.90;;;;;;4406993;28;656815;-68
2023/09/03 03:36:20;;;;;;;11.23;6.40;;;13.20;99.90;;;;;;4394826;28;656960;-68
2023/09/03 03:39:07;;;;;;;8.77;5.73;;;13.20;99.90;;;;;;4396321;28;657257;-68
2023/09/03 03:41:55;;;;;;;9.77;6.30;;;13.20;99.90;;;;;;4416150;28;655770;-68
2023/09/03 03:44:43;;;;;;;11.63;5.87;;;13.30;99.90;;;;;;4413651;28;655123;-68
2023/09/03 03:47:30;;;;;;;7.17;5.47;;;13.30;99.90;;;;;;4383124;28;657276;-68
2023/09/03 03:50:18;;;;;;;7.97;5.70;;;13.20;99.90;;;;;;4383546;28;656240;-69
2023/09/03 03:53:05;;;;;;;9.63;5.57;;;13.30;99.90;;;;;;4397788;28;656639;-68
2023/09/03 03:55:59;;;;;;;15.40;5.93;;;13.30;99.90;;;;;;4400656;28;656305;-68
2023/09/03 03:58:46;;;;;;;7.87;5.30;;;13.20;99.90;;;;;;4388426;28;657046;-68
2023/09/03 04:01:35;;;;;;;15.33;5.57;;;13.20;99.90;;;;;;4382533;28;655588;-68
2023/09/03 04:04:22;;;;;;;12.20;5.73;;;13.30;99.90;;;;;;4407132;28;657445;-68
2023/09/03 04:07:10;;;;;;;11.20;5.00;;;13.30;99.90;;;;;;4398371;28;657098;-68
2023/09/03 04:09:59;;;;;;;8.27;5.40;;;13.30;99.90;;;;;;4395724;28;657490;-69
2023/09/03 04:12:46;;;;;;;14.57;5.20;;;13.40;99.90;;;;;;4374657;28;656088;-68
2023/09/03 04:15:33;;;;;;;12.53;5.53;;;13.50;99.90;;;;;;4377707;28;656602;-68
2023/09/03 04:18:22;;;;;;;8.47;5.10;;;13.50;99.90;;;;;;4396135;28;657169;-68
2023/09/03 04:21:09;;;;;;;7.57;5.23;;;13.60;99.90;;;;;;4376671;28;657035;-68
2023/09/03 04:23:57;;;;;;;9.10;5.20;;;13.60;99.90;;;;;;4384535;28;655741;-68
2023/09/03 04:26:44;;;;;;;9.60;5.70;;;13.70;99.90;;;;;;4377368;28;655939;-69
2023/09/03 04:29:31;;;;;;;14.00;5.63;;;13.70;99.90;;;;;;4397116;28;655512;-69
2023/09/03 04:32:18;;;;;;;8.53;5.80;;;13.70;99.90;;;;;;4374340;28;656800;-69
2023/09/03 04:35:08;;;;;;;14.00;6.37;;;13.80;99.90;;;;;;4385555;28;656499;-69
2023/09/03 04:37:55;;;;;;;8.80;6.07;;;13.90;99.90;;;;;;4369255;28;656947;-68
2023/09/03 04:40:44;;;;;;;10.00;6.03;;;14.00;99.90;;;;;;4366328;28;655976;-68
2023/09/03 04:43:32;;;;;;;11.07;6.60;;;14.20;99.90;;;;;;4378875;28;656537;-69
2023/09/03 04:46:19;;;;;;;15.37;7.07;;;14.30;99.90;;;;;;4371007;28;657704;-69
2023/09/03 04:49:06;;;;;;;13.73;6.57;;;14.40;99.90;;;;;;4389120;28;657039;-68
2023/09/03 04:51:55;;;;;;;14.03;8.20;;;14.60;99.90;;;;;;4372718;28;656673;-68
2023/09/03 04:54:43;;;;;;;19.80;9.10;;;14.70;99.90;;;;;;4378938;28;657607;-68
2023/09/03 04:57:30;;;;;;;24.48;10.45;;;14.80;99.90;;;;;;4396113;28;658095;-68
2023/09/03 05:00:18;;;;;;;22.30;11.73;;;14.90;99.90;;;;;;4366349;28;657551;-68
2023/09/03 05:03:05;;;;;;;32.63;11.40;;;15.00;99.90;;;;;;4408366;28;657885;-68
2023/09/03 05:05:53;;;;;;;25.67;12.00;;;15.10;99.90;;;;;;4389275;28;657848;-68
2023/09/03 05:08:41;;;;;;;28.47;11.80;;;15.10;99.90;;;;;;4415221;28;659265;-69
2023/09/03 05:11:28;;;;;;;25.00;11.67;;;15.10;99.90;;;;;;4395391;28;657752;-69
2023/09/03 05:14:16;;;;;;;22.57;10.47;;;15.20;99.90;;;;;;4415534;28;659285;-69
2023/09/03 05:17:03;;;;;;;25.97;10.27;;;15.20;99.90;;;;;;4397440;28;658267;-69
2023/09/03 05:19:50;;;;;;;21.63;10.87;;;15.30;99.90;;;;;;4419247;28;658999;-69
2023/09/03 05:22:38;;;;;;;23.53;10.57;;;15.40;99.90;;;;;;4396332;28;658797;-69
2023/09/03 05:25:27;;;;;;;22.97;10.73;;;15.30;99.90;;;;;;4409922;28;658922;-69
2023/09/03 05:28:14;;;;;;;25.60;10.60;;;15.50;99.90;;;;;;4387199;28;657585;-69
2023/09/03 05:31:01;;;;;;;20.93;11.20;;;15.50;99.90;;;;;;4388805;28;658426;-69
2023/09/03 05:33:48;;;;;;;28.97;11.27;;;15.60;99.90;;;;;;4389574;28;657760;-69
2023/09/03 05:36:35;;;;;;;23.27;11.20;;;15.80;99.90;;;;;;4413766;28;658958;-68
2023/09/03 05:39:23;;;;;;;24.27;11.57;;;15.80;99.90;;;;;;4388303;28;658118;-68
2023/09/03 05:42:11;;;;;;;27.07;11.57;;;16.00;99.90;;;;;;4381377;28;658365;-68
2023/09/03 05:44:59;;;;;;;23.90;11.10;;;16.10;99.90;;;;;;4361695;28;658087;-68
2023/09/03 05:47:46;;;;;;;18.43;11.53;;;16.20;99.90;;;;;;4392659;28;658892;-68
2023/09/03 05:50:33;;;;;;;22.13;11.33;;;16.40;99.90;;;;;;4373702;28;659442;-68
2023/09/03 05:53:20;;;;;;;19.17;11.10;;;16.50;99.90;;;;;;4412111;28;658004;-68
2023/09/03 05:56:08;;;;;;;18.87;11.00;;;16.60;99.90;;;;;;4392533;28;657982;-67
2023/09/03 05:59:02;;;;;;;20.03;10.70;;;16.60;99.90;;;;;;4424587;28;658676;-68
2023/09/03 06:01:49;;;;;;;16.10;10.23;;;16.50;99.90;;;;;;4366568;28;659017;-67
2023/09/03 06:04:36;;;;;;;18.80;10.38;;;16.50;99.90;;;;;;4409789;28;658043;-69
2023/09/03 06:07:24;;;;;;;23.03;9.77;;;16.30;99.90;;;;;;4398703;28;659171;-69
2023/09/03 06:10:11;;;;;;;13.93;10.13;;;16.40;99.90;;;;;;4411232;28;656890;-69
2023/09/03 06:12:58;;;;;;;18.97;10.27;;;16.30;99.90;;;;;;4391395;28;658329;-69
2023/09/03 06:15:47;;;;;;;13.00;9.87;;;16.30;99.90;;;;;;4421140;28;658498;-69
2023/09/03 06:18:34;;;;;;;16.10;10.07;;;16.30;99.90;;;;;;4392953;28;656494;-69
2023/09/03 06:21:21;;;;;;;15.80;9.70;;;16.40;99.90;;;;;;4417564;28;657678;-69
2023/09/03 06:24:09;;;;;;;15.47;9.90;;;16.50;99.90;;;;;;4400101;28;656957;-68
2023/09/03 06:26:56;;;;;;;14.67;10.47;;;16.60;99.90;;;;;;4407720;28;657048;-68
2023/09/03 06:29:43;;;;;;;14.63;10.13;;;16.70;99.90;;;;;;4388795;28;657775;-68
2023/09/03 06:32:32;;;;;;;15.57;9.97;;;16.60;99.90;;;;;;4411085;28;657566;-68
2023/09/03 06:35:19;;;;;;;15.67;10.73;;;16.70;99.90;;;;;;4386569;28;657146;-68
2023/09/03 06:38:06;;;;;;;16.70;10.67;;;16.80;99.90;;;;;;4407388;28;658407;-68
2023/09/03 06:40:53;;;;;;;16.50;11.07;;;16.90;99.90;;;;;;4387676;28;657629;-68
2023/09/03 06:43:41;;;;;;;19.93;10.93;;;16.80;99.90;;;;;;4401405;28;658222;-69
2023/09/03 06:46:28;;;;;;;25.23;12.37;;;16.50;99.90;;;;;;4389487;28;657335;-70
2023/09/03 06:49:17;;;;;;;18.40;12.63;;;16.30;99.90;;;;;;4422433;28;658670;-69
2023/09/03 06:52:04;;;;;;;19.93;12.87;;;16.30;99.90;;;;;;4374614;28;657477;-69
2023/09/03 06:54:52;;;;;;;23.40;13.98;;;16.00;99.90;;;;;;4399645;28;657692;-70
2023/09/03 06:57:39;;;;;;;22.47;14.33;;;15.90;99.90;;;;;;4340701;28;657781;-68
2023/09/03 07:00:26;;;;;;;24.70;14.33;;;16.10;99.90;;;;;;4368898;28;658207;-68
2023/09/03 07:03:13;;;;;;;21.10;14.43;;;16.20;99.90;;;;;;4336418;28;657554;-69
2023/09/03 07:06:02;;;;;;;20.80;14.83;;;16.30;99.90;;;;;;4315981;28;659500;-69
2023/09/03 07:08:51;;;;;;;24.07;14.03;;;16.60;99.90;;;;;;4279027;28;657667;-69
2023/09/03 07:11:39;;;;;;;17.37;12.53;;;16.70;99.90;;;;;;4300394;28;658010;-69
2023/09/03 07:14:26;;;;;;;16.93;12.23;;;16.90;99.90;;;;;;4404565;28;657638;-68
2023/09/03 07:17:13;;;;;;;14.77;10.73;;;17.10;99.90;;;;;;4385023;28;657661;-68
2023/09/03 07:20:00;;;;;;;14.73;10.80;;;17.20;99.90;;;;;;4396136;28;658675;-68
2023/09/03 07:22:49;;;;;;;16.47;10.60;;;17.30;99.90;;;;;;4387472;28;658200;-68
2023/09/03 07:25:36;;;;;;;13.47;10.43;;;17.40;99.90;;;;;;4406139;28;657249;-68
2023/09/03 07:28:23;;;;;;;13.07;9.33;;;17.50;99.90;;;;;;4385271;28;657579;-68
2023/09/03 07:31:10;;;;;;;11.73;9.07;;;17.50;99.90;;;;;;4403756;28;656924;-68
2023/09/03 07:33:59;;;;;;;9.37;8.03;;;17.60;99.90;;;;;;4387394;28;657609;-68
2023/09/03 07:36:46;;;;;;;12.23;8.80;;;17.70;99.90;;;;;;4404182;28;655414;-68
2023/09/03 07:39:35;;;;;;;10.05;8.40;;;18.00;99.90;;;;;;4390531;28;656651;-68
2023/09/03 07:42:22;;;;;;;11.27;7.57;;;18.10;99.90;;;;;;4385607;28;656799;-68
2023/09/03 07:45:11;;;;;;;11.30;7.90;;;18.40;99.90;;;;;;4412249;28;656474;-67
2023/09/03 07:47:58;;;;;;;9.87;7.37;;;18.50;99.90;;;;;;4387103;28;656601;-67
2023/09/03 07:50:45;;;;;;;12.53;7.73;;;18.60;99.90;;;;;;4416366;28;655475;-68
2023/09/03 07:53:33;;;;;;;12.57;7.97;;;18.70;99.90;;;;;;4383012;28;657400;-68
2023/09/03 07:56:22;;;;;;;16.27;8.37;;;18.70;99.90;;;;;;4402129;28;656955;-67
2023/09/03 07:59:10;;;;;;;14.33;7.90;;;18.90;99.90;;;;;;4391703;28;656844;-67
2023/09/03 08:02:00;;;;;;;12.70;7.63;;;19.20;99.90;;;;;;4388288;28;656559;-67
2023/09/03 08:04:47;;;;;;;15.07;7.40;;;19.10;99.90;;;;;;4399248;28;657940;-67
2023/09/03 08:07:35;;;;;;;19.17;8.17;;;19.00;99.90;;;;;;4406479;28;656926;-67
2023/09/03 08:10:22;;;;;;;19.30;7.60;;;18.90;99.90;;;;;;4412464;28;656810;-67
2023/09/03 08:13:10;;;;;;;18.17;7.80;;;19.00;99.90;;;;;;4381127;28;657437;-67
2023/09/03 08:15:58;;;;;;;16.93;7.50;;;19.00;99.90;;;;;;4388288;28;656528;-67
2023/09/03 08:18:45;;;;;;;14.93;7.47;;;18.80;99.90;;;;;;4403670;28;657791;-67
2023/09/03 08:21:32;;;;;;;17.27;7.47;;;19.30;99.90;;;;;;4398836;28;656371;-67
2023/09/03 08:24:20;;;;;;;12.80;7.57;;;19.80;99.90;;;;;;4412124;28;656648;-67
2023/09/03 08:27:07;;;;;;;12.17;7.67;;;20.10;99.90;;;;;;4407608;28;656715;-66
2023/09/03 08:29:57;;;;;;;13.23;8.10;;;20.00;99.90;;;;;;4410594;28;656996;-67
2023/09/03 08:32:44;;;;;;;10.83;6.63;;;19.40;99.90;;;;;;4390285;28;656465;-67
2023/09/03 08:35:31;;;;;;;10.63;7.33;;;19.50;99.90;;;;;;4410071;28;656863;-67
2023/09/03 08:38:18;;;;;;;10.67;7.87;;;20.10;99.90;;;;;;4393586;28;656410;-67
2023/09/03 08:41:05;;;;;;;10.43;7.40;;;20.50;99.90;;;;;;4412175;28;656913;-67
2023/09/03 08:43:55;;;;;;;11.20;7.50;;;20.50;99.90;;;;;;4391348;28;657521;-67
2023/09/03 08:46:44;;;;;;;9.47;7.13;;;20.50;99.90;;;;;;4389395;28;656603;-67
2023/09/03 08:49:31;;;;;;;11.40;6.87;;;20.50;99.90;;;;;;4413943;28;655774;-67
2023/09/03 08:52:18;;;;;;;10.30;7.20;;;20.90;99.90;;;;;;4392061;28;657270;-67
2023/09/03 08:55:06;;;;;;;14.90;7.43;;;20.90;99.90;;;;;;4410205;28;656859;-66
2023/09/03 08:57:54;;;;;;;11.83;7.10;;;21.00;99.90;;;;;;4389996;28;656839;-66
2023/09/03 09:00:42;;;;;;;13.00;7.50;;;20.90;99.90;;;;;;4407233;28;656469;-67
2023/09/03 09:03:30;;;;;;;11.13;7.40;;;20.60;99.90;;;;;;4391504;28;656657;-67
2023/09/03 09:06:17;;;;;;;14.57;7.40;;;20.70;99.90;;;;;;4381701;28;657108;-66
2023/09/03 09:09:05;;;;;;;10.93;7.67;;;20.80;99.90;;;;;;4411325;28;656159;-66
2023/09/03 09:11:58;;;;;;;12.03;7.67;;;20.80;99.90;;;;;;4401903;28;656197;-66
2023/09/03 09:14:49;;;;;;;10.53;6.97;;;21.20;99.90;;;;;;4388668;28;657413;-66
2023/09/03 09:17:38;;;;;;;14.07;7.57;;;21.00;99.90;;;;;;4387302;28;656461;-67
2023/09/03 09:20:26;;;;;;;8.03;6.37;;;21.50;99.90;;;;;;4389231;28;657706;-67
2023/09/03 09:23:15;;;;;;;10.33;6.60;;;21.70;99.90;;;;;;4393501;28;656292;-67
2023/09/03 09:26:07;;;;;;;9.70;6.50;;;22.10;99.90;;;;;;4401769;28;656910;-67
2023/09/03 09:28:59;;;;;;;9.87;5.93;;;21.70;99.90;;;;;;4390333;28;656000;-66
2023/09/03 09:31:46;;;;;;;8.13;5.60;;;22.10;99.90;;;;;;4390061;28;655830;-67
2023/09/03 09:34:34;;;;;;;8.73;5.20;;;22.60;99.90;;;;;;4395559;28;655671;-66
2023/09/03 09:37:24;;;;;;;8.87;7.40;;;22.10;99.90;;;;;;4412322;28;655648;-67
2023/09/03 09:40:12;;;;;;;8.70;5.10;;;21.40;99.90;;;;;;4377858;28;655243;-67
2023/09/03 09:43:01;;;;;;;6.80;4.97;;;21.10;99.90;;;;;;4388430;28;657064;-66
2023/09/03 09:45:49;;;;;;;7.10;4.80;;;20.90;99.90;;;;;;4394109;28;655970;-66
2023/09/03 09:48:36;;;;;;;7.17;4.50;;;21.40;99.90;;;;;;4397249;28;656114;-66
2023/09/03 09:51:23;;;;;;;10.57;4.57;;;22.10;99.90;;;;;;4393603;28;655633;-66
2023/09/03 09:54:12;;;;;;;8.87;4.97;;;22.70;99.90;;;;;;4411904;28;657866;-66
2023/09/03 09:56:59;;;;;;;8.23;4.30;;;23.20;99.90;;;;;;4384010;28;656459;-66
2023/09/03 09:59:52;;;;;;;5.72;4.28;;;23.00;99.90;;;;;;4414656;28;656013;-66
2023/09/03 10:02:39;;;;;;;4.90;4.40;;;22.20;99.90;;;;;;4392815;28;655560;-67
2023/09/03 10:05:26;;;;;;;8.10;4.60;;;20.90;99.90;;;;;;4410001;28;656800;-67
2023/09/03 10:08:13;;;;;;;8.80;5.13;;;20.30;99.90;;;;;;4387199;28;655540;-66
2023/09/03 10:11:02;;;;;;;8.03;4.93;;;20.40;99.90;;;;;;4413055;28;656045;-66
2023/09/03 10:13:49;;;;;;;8.80;4.97;;;20.40;99.90;;;;;;4388160;28;656118;-66
2023/09/03 10:16:37;;;;;;;7.80;5.03;;;20.80;99.90;;;;;;4404348;28;655775;-65
2023/09/03 10:19:24;;;;;;;7.13;5.23;;;21.40;99.90;;;;;;4387126;28;655228;-66
2023/09/03 10:22:15;;;;;;;6.27;5.33;;;21.90;99.90;;;;;;4411910;28;655616;-66
2023/09/03 10:25:05;;;;;;;6.67;5.20;;;22.20;99.90;;;;;;4366637;28;655651;-66
2023/09/03 10:27:59;;;;;;;7.50;4.83;;;22.80;99.90;;;;;;4397260;28;655166;-66
2023/09/03 10:30:51;;;;;;;8.90;4.57;;;23.30;99.90;;;;;;4383519;28;655365;-66
2023/09/03 10:33:40;;;;;;;7.10;4.10;;;23.60;99.90;;;;;;4366164;28;656227;-66
2023/09/03 10:36:28;;;;;;;11.73;4.68;;;24.10;99.90;;;;;;4396137;28;655275;-66
2023/09/03 10:39:24;;;;;;;5.78;4.45;;;23.80;99.90;;;;;;4403846;28;657545;-66
2023/09/03 10:42:35;;;;;;;9.23;4.90;;;22.70;99.90;;;;;;4383579;28;655653;-66
2023/09/03 10:45:24;;;;;;;10.43;4.83;;;22.60;99.90;;;;;;4361033;28;655380;-66
2023/09/03 10:48:14;;;;;;;7.27;4.53;;;22.60;99.90;;;;;;4400666;28;656396;-65
2023/09/03 10:51:02;;;;;;;8.38;5.22;;;22.90;99.90;;;;;;4388101;28;655735;-65
2023/09/03 10:53:50;;;;;;;6.70;4.65;;;23.20;99.90;;;;;;4375187;28;655191;-65
2023/09/03 10:56:38;;;;;;;6.13;4.80;;;23.30;99.90;;;;;;4390692;28;656739;-66
2023/09/03 10:59:25;;;;;;;7.07;4.82;;;23.40;99.90;;;;;;4406076;28;655530;-65
2023/09/03 11:02:26;;;;;;;7.97;4.35;;;23.50;99.90;;;;;;4380373;28;655566;-65
2023/09/03 11:05:14;;;;;;;8.50;4.88;;;24.10;99.90;;;;;;4360112;28;655238;-66
2023/09/03 11:08:29;;;;;;;8.35;4.20;;;24.50;99.90;;;;;;4399276;28;656074;-66
2023/09/03 11:11:20;;;;;;;6.25;3.75;;;24.30;99.90;;;;;;4377754;28;655849;-65
2023/09/03 11:14:10;;;;;;;9.23;3.85;;;24.00;99.90;;;;;;4366558;28;655670;-66
2023/09/03 11:16:58;;;;;;;4.72;3.67;;;23.60;99.90;;;;;;4401143;28;656035;-66
2023/09/03 11:19:47;;;;;;;4.18;3.40;;;23.20;99.90;;;;;;4403961;28;656588;-66
2023/09/03 11:22:37;;;;;;;3.83;3.42;;;23.00;99.90;;;;;;4389565;28;655922;-65
2023/09/03 11:25:32;;;;;;;6.13;3.70;;;22.80;99.90;;;;;;4477199;28;656617;-65
2023/09/03 11:28:19;;;;;;;5.07;3.83;;;22.80;99.90;;;;;;5036537;28;20281;-66
2023/09/03 11:31:06;;;;;;;4.20;3.37;;;23.00;99.90;;;;;;5046096;28;20197;-65
2023/09/03 11:33:55;;;;;;;4.65;3.00;;;23.30;99.90;;;;;;5038719;28;20849;-66
2023/09/03 11:36:44;;;;;;;4.85;2.83;;;24.00;99.90;;;;;;5045262;28;20220;-65
2023/09/03 11:39:31;;;;;;;5.68;3.38;;;24.30;93.50;;;;;;5045980;28;20209;-65
2023/09/03 11:42:18;;;;;;;4.88;3.80;;;24.40;94.00;;;;;;5042327;28;20635;-66
2023/09/03 11:45:08;;;;;;;8.85;4.70;;;24.30;98.50;;;;;;5043251;28;20583;-65
2023/09/03 11:47:55;;;;;;;8.05;4.30;;;23.80;98.30;;;;;;5039186;28;20202;-65
2023/09/03 11:50:43;;;;;;;8.57;5.30;;;23.80;99.90;;;;;;5046408;28;20208;-65
2023/09/03 11:53:41;;;;;;;5.68;4.30;;;24.30;99.90;;;;;;5032553;28;20243;-66
2023/09/03 11:56:30;;;;;;;5.85;4.15;;;24.90;94.40;;;;;;5046247;28;20277;-65
2023/09/03 11:59:17;;;;;;;6.82;4.30;;;25.50;91.60;;;;;;5044801;28;20214;-65
2023/09/03 12:02:04;;;;;;;4.13;3.45;;;25.30;90.30;;;;;;5041643;28;20201;-65
2023/09/03 12:04:52;;;;;;;6.35;3.92;;;24.80;88.50;;;;;;5044237;28;20205;-65
2023/09/03 12:07:39;;;;;;;5.68;3.80;;;23.90;90.80;;;;;;5039846;28;20201;-65
2023/09/03 12:10:28;;;;;;;10.10;3.70;;;23.10;97.90;;;;;;5035404;28;20197;-65
2023/09/03 12:13:15;;;;;;;9.27;3.67;;;23.20;99.90;;;;;;5032492;28;20694;-65
2023/09/03 12:16:04;;;;;;;4.93;3.42;;;23.50;99.90;;;;;;5043083;28;20205;-65
2023/09/03 12:18:55;;;;;;;5.57;3.72;;;23.80;99.90;;;;;;5047260;28;20335;-65
2023/09/03 12:21:42;;;;;;;3.85;2.90;;;23.90;97.30;;;;;;5042872;28;20254;-65
2023/09/03 12:24:30;;;;;;;4.35;2.90;;;24.00;98.60;;;;;;5039859;28;20232;-65
2023/09/03 12:27:18;;;;;;;6.13;2.90;;;24.30;96.30;;;;;;5041763;28;20204;-65
2023/09/03 12:30:07;;;;;;;3.88;2.95;;;24.60;97.30;;;;;;5038578;28;20205;-65
2023/09/03 12:32:54;;;;;;;3.75;2.65;;;24.10;91.70;;;;;;5043624;28;20201;-65
2023/09/03 12:35:41;;;;;;;3.38;2.40;;;24.30;97.10;;;;;;5049604;28;20256;-64
2023/09/03 12:38:29;;;;;;;3.78;2.72;;;24.80;80.50;;;;;;5035759;28;20244;-65
2023/09/03 12:41:16;;;;;;;7.00;3.00;;;24.90;80.70;;;;;;5044625;28;20223;-65
2023/09/03 12:44:08;;;;;;;6.55;2.90;;;25.30;85.60;;;;;;5044083;28;20193;-64
2023/09/03 12:46:55;;;;;;;4.82;3.47;;;25.70;77.20;;;;;;5038368;28;20240;-65
2023/09/03 12:49:43;;;;;;;4.93;3.30;;;25.80;82.50;;;;;;5048057;28;20664;-64
2023/09/03 12:52:30;;;;;;;4.65;3.50;;;26.40;71.00;;;;;;5039894;28;20304;-65
2023/09/03 12:55:17;;;;;;;4.97;3.30;;;26.50;70.70;;;;;;5038121;28;20205;-64
2023/09/03 12:58:05;;;;;;;6.53;3.55;;;26.50;70.10;;;;;;5040440;28;20672;-64
2023/09/03 13:00:53;;;;;;;4.03;3.10;;;26.00;67.20;;;;;;5046416;28;20218;-65
2023/09/03 13:03:40;;;;;;;7.85;3.30;;;25.10;77.60;;;;;;5044793;28;20287;-65
2023/09/03 13:06:28;;;;;;;5.32;3.20;;;24.80;79.00;;;;;;5041602;28;20198;-65
2023/09/03 13:09:15;;;;;;;3.65;2.50;;;24.90;73.80;;;;;;5034997;28;20216;-65
2023/09/03 13:12:02;;;;;;;5.63;3.03;;;25.00;73.50;;;;;;5042444;28;20656;-65
2023/09/03 13:14:49;;;;;;;4.80;3.00;;;25.00;75.60;;;;;;5039751;28;20288;-64
2023/09/03 13:17:38;;;;;;;5.35;2.83;;;24.50;70.80;;;;;;5043018;28;20276;-64
2023/09/03 13:20:25;;;;;;;6.03;3.00;;;24.60;74.60;;;;;;5038338;28;20192;-65
2023/09/03 13:23:12;;;;;;;6.10;2.80;;;24.40;68.30;;;;;;5045550;28;20205;-65
2023/09/03 13:26:00;;;;;;;3.40;2.83;;;23.80;76.90;;;;;;5048712;28;20235;-65
2023/09/03 13:28:47;;;;;;;4.30;2.90;;;23.60;75.60;;;;;;5046438;28;20201;-65
2023/09/03 13:31:34;;;;;;;5.47;2.80;;;23.20;79.00;;;;;;5051120;28;20197;-65
2023/09/03 13:34:23;;;;;;;6.10;3.45;;;23.40;83.30;;;;;;5046622;28;20237;-65
2023/09/03 13:37:10;;;;;;;4.05;2.60;;;23.80;90.30;;;;;;5042736;28;20225;-66
2023/09/03 13:39:57;;;;;;;4.57;2.47;;;24.00;83.50;;;;;;5045595;28;20292;-64
2023/09/03 13:42:45;;;;;;;5.47;2.40;;;24.30;79.40;;;;;;5042520;28;20223;-65
2023/09/03 13:45:32;;;;;;;3.08;2.63;;;24.30;77.50;;;;;;5044413;28;20214;-65
2023/09/03 13:48:19;;;;;;;4.72;2.67;;;24.20;77.90;;;;;;5039538;28;20201;-65
2023/09/03 13:51:10;;;;;;;4.25;2.50;;;24.30;82.00;;;;;;5046462;28;20294;-65
2023/09/03 13:53:59;;;;;;;4.68;2.70;;;24.70;77.00;;;;;;5043851;28;20197;-65
2023/09/03 13:56:46;;;;;;;3.35;2.28;;;25.00;77.70;;;;;;5040694;28;20204;-65
2023/09/03 13:59:34;;;;;;;4.82;2.83;;;25.00;74.70;;;;;;5042612;28;21307;-65
2023/09/03 14:02:22;;;;;;;4.80;2.63;;;24.50;74.20;;;;;;5052312;28;20236;-65
2023/09/03 14:05:10;;;;;;;4.15;2.28;;;24.80;72.90;;;;;;5053648;28;20282;-65
2023/09/03 14:07:58;;;;;;;5.53;2.90;;;25.00;73.50;;;;;;5041428;28;20202;-65
2023/09/03 14:10:45;;;;;;;5.07;2.38;;;24.90;75.00;;;;;;5048639;28;20590;-65
2023/09/03 14:13:33;;;;;;;4.05;2.67;;;25.40;74.50;;;;;;5047775;28;20221;-65
2023/09/03 14:16:20;;;;;;;4.57;2.83;;;25.50;73.90;;;;;;5046083;28;20216;-65